Time;durP1;ratioP1;P1;durP2;ratioP2;P2;SDS_P1;SDS_P2;PMS_P1;PMS_P2;Temp;Humidity;BMP_temperature;BMP_pressure;BME280_temperature;BME280_humidity;BME280_pressure;Samples;Min_cycle;Max_cycle;Signal;HPM_P1;HPM_P2
2023/09/01 00:01:00;;;;;;;3.08;1.90;;;16.50;99.90;;;;;;4967356;28;20047;-59
2023/09/01 00:03:27;;;;;;;2.63;2.00;;;16.50;99.90;;;;;;4951750;28;20071;-58
2023/09/01 00:05:55;;;;;;;2.75;1.80;;;16.50;99.90;;;;;;4968131;28;20092;-60
2023/09/01 00:08:24;;;;;;;3.88;1.60;;;16.50;99.90;;;;;;4966897;28;20141;-59
2023/09/01 00:10:51;;;;;;;3.15;1.88;;;16.60;99.90;;;;;;4966355;28;20047;-58
2023/09/01 00:13:17;;;;;;;2.92;2.17;;;16.60;99.90;;;;;;4968293;28;20054;-60
2023/09/01 00:15:44;;;;;;;2.60;2.03;;;16.60;99.90;;;;;;4967325;28;20050;-60
2023/09/01 00:18:11;;;;;;;3.90;2.05;;;16.60;99.90;;;;;;4969011;28;20055;-59
2023/09/01 00:20:38;;;;;;;2.67;1.80;;;16.60;99.90;;;;;;4968045;28;20417;-60
2023/09/01 00:23:05;;;;;;;3.40;2.15;;;16.60;99.90;;;;;;4967712;28;20117;-59
2023/09/01 00:25:32;;;;;;;3.25;1.95;;;16.70;99.90;;;;;;4967301;28;20105;-60
2023/09/01 00:27:59;;;;;;;2.67;1.85;;;16.70;99.90;;;;;;4968128;28;20562;-60
2023/09/01 00:30:27;;;;;;;2.50;1.88;;;16.70;99.90;;;;;;4971968;28;20051;-59
2023/09/01 00:32:55;;;;;;;3.45;2.08;;;16.70;99.90;;;;;;4967630;28;20046;-59
2023/09/01 00:35:22;;;;;;;3.20;1.77;;;16.60;99.90;;;;;;4967773;28;20064;-58
2023/09/01 00:37:50;;;;;;;2.35;1.90;;;16.60;99.90;;;;;;4967856;28;20451;-59
2023/09/01 00:40:17;;;;;;;2.03;1.83;;;16.70;99.90;;;;;;4968169;28;20050;-60
2023/09/01 00:42:44;;;;;;;2.50;1.70;;;16.80;99.90;;;;;;4975227;28;20069;-60
2023/09/01 00:45:10;;;;;;;4.30;2.35;;;16.70;99.90;;;;;;4968612;28;20058;-60
2023/09/01 00:47:38;;;;;;;3.88;2.22;;;16.70;99.90;;;;;;4967475;28;20305;-60
2023/09/01 00:50:07;;;;;;;2.40;1.90;;;16.80;99.90;;;;;;4967878;28;20750;-60
2023/09/01 00:52:35;;;;;;;3.22;1.80;;;16.80;99.90;;;;;;4961062;28;20043;-60
2023/09/01 00:55:02;;;;;;;2.75;2.05;;;16.80;99.90;;;;;;4965218;28;20054;-59
2023/09/01 00:57:30;;;;;;;2.45;1.83;;;16.80;99.90;;;;;;4967613;28;20043;-58
2023/09/01 00:59:57;;;;;;;3.25;1.80;;;16.80;99.90;;;;;;4967996;28;20050;-60
2023/09/01 01:02:25;;;;;;;2.50;1.60;;;16.80;99.90;;;;;;4950341;28;20039;-60
2023/09/01 01:04:53;;;;;;;2.65;1.63;;;16.80;99.90;;;;;;4966720;28;20058;-59
2023/09/01 01:07:31;;;;;;;4.28;1.80;;;16.80;99.90;;;;;;4606610;28;10000301;-60
2023/09/01 01:10:17;;;;;;;2.78;2.05;;;16.90;99.90;;;;;;4941846;28;20050;-59
2023/09/01 01:12:59;;;;;;;4.82;2.10;;;16.90;99.90;;;;;;4968266;28;20042;-57
2023/09/01 01:15:26;;;;;;;2.22;2.00;;;16.80;99.90;;;;;;4967460;28;20120;-60
2023/09/01 01:17:53;;;;;;;3.17;1.90;;;16.80;99.90;;;;;;4966918;28;20043;-59
2023/09/01 01:20:28;;;;;;;4.38;2.20;;;16.80;99.90;;;;;;4968400;28;20595;-59
2023/09/01 01:23:17;;;;;;;3.08;2.25;;;16.80;99.90;;;;;;4971515;28;20050;-61
2023/09/01 01:25:45;;;;;;;2.28;2.03;;;16.90;99.90;;;;;;4966986;28;20058;-60
2023/09/01 01:28:12;;;;;;;4.72;2.45;;;16.90;99.90;;;;;;4967976;28;20474;-60
2023/09/01 01:30:39;;;;;;;3.85;2.22;;;16.90;99.90;;;;;;4967863;28;20229;-59
2023/09/01 01:33:14;;;;;;;2.92;2.03;;;16.90;99.90;;;;;;4934881;28;20058;-59
2023/09/01 01:35:50;;;;;;;6.03;2.25;;;16.90;99.90;;;;;;4966362;28;20105;-60
2023/09/01 01:38:20;;;;;;;3.78;2.20;;;16.90;99.90;;;;;;4966629;28;20151;-60
2023/09/01 01:40:49;;;;;;;3.75;2.33;;;16.90;99.90;;;;;;4951038;28;20042;-59
2023/09/01 01:43:18;;;;;;;3.28;1.95;;;16.90;99.90;;;;;;4967915;28;20094;-61
2023/09/01 01:45:44;;;;;;;2.85;2.05;;;16.90;99.90;;;;;;4952997;28;20121;-60
2023/09/01 01:48:11;;;;;;;4.22;1.98;;;16.90;99.90;;;;;;4970257;28;20086;-59
2023/09/01 01:50:40;;;;;;;4.20;2.22;;;16.90;99.90;;;;;;4970243;28;20062;-59
2023/09/01 01:53:07;;;;;;;3.90;2.28;;;16.90;99.90;;;;;;4971609;28;20046;-59
2023/09/01 01:55:34;;;;;;;5.43;2.40;;;16.90;99.90;;;;;;4971014;28;20055;-60
2023/09/01 01:58:01;;;;;;;2.80;2.40;;;16.90;99.90;;;;;;4970558;28;20121;-59
2023/09/01 02:00:28;;;;;;;2.92;2.53;;;16.90;99.90;;;;;;4978023;28;20284;-60
2023/09/01 02:02:55;;;;;;;4.93;2.85;;;16.90;99.90;;;;;;4971301;28;20261;-59
2023/09/01 02:05:22;;;;;;;4.82;2.92;;;16.90;99.90;;;;;;4970854;28;20399;-58
2023/09/01 02:07:49;;;;;;;5.60;3.53;;;16.90;99.90;;;;;;4961869;28;20051;-60
2023/09/01 02:10:17;;;;;;;6.85;4.63;;;16.80;99.90;;;;;;4970876;28;20051;-59
2023/09/01 02:12:47;;;;;;;7.47;4.72;;;16.80;99.90;;;;;;4971115;28;20151;-59
2023/09/01 02:15:14;;;;;;;5.80;4.05;;;16.80;99.90;;;;;;4973788;28;20437;-60
2023/09/01 02:17:41;;;;;;;7.00;4.10;;;16.80;99.90;;;;;;4970524;28;20054;-59
2023/09/01 02:20:17;;;;;;;8.50;4.32;;;16.80;99.90;;;;;;4970116;28;20514;-59
2023/09/01 02:22:44;;;;;;;8.02;3.95;;;16.80;99.90;;;;;;4966888;28;20055;-59
2023/09/01 02:25:12;;;;;;;8.63;4.63;;;16.80;99.90;;;;;;4969771;28;20422;-60
2023/09/01 02:27:41;;;;;;;6.85;4.55;;;16.80;99.90;;;;;;4969941;28;20098;-60
2023/09/01 02:30:09;;;;;;;7.35;3.92;;;16.80;99.90;;;;;;4969831;28;20043;-60
2023/09/01 02:32:36;;;;;;;7.70;3.88;;;16.80;99.90;;;;;;4953889;28;20050;-60
2023/09/01 02:35:06;;;;;;;6.85;4.10;;;16.90;99.90;;;;;;4976804;28;20541;-60
2023/09/01 02:37:33;;;;;;;9.18;5.15;;;16.90;99.90;;;;;;4969460;28;20055;-60
2023/09/01 02:40:00;;;;;;;6.13;4.03;;;16.90;99.90;;;;;;4969402;28;20064;-59
2023/09/01 02:42:27;;;;;;;5.80;3.97;;;16.90;99.90;;;;;;4969748;28;20562;-60
2023/09/01 02:44:54;;;;;;;7.50;3.95;;;17.00;99.90;;;;;;4973629;28;20046;-59
2023/09/01 02:47:21;;;;;;;7.50;4.38;;;17.00;99.90;;;;;;4969427;28;20148;-60
2023/09/01 02:49:48;;;;;;;6.45;4.13;;;17.00;99.90;;;;;;4976531;28;20085;-59
2023/09/01 02:52:15;;;;;;;4.75;3.40;;;17.00;99.90;;;;;;4970186;28;20055;-60
2023/09/01 02:54:42;;;;;;;8.82;4.13;;;17.00;99.90;;;;;;4967630;28;20081;-60
2023/09/01 02:57:09;;;;;;;4.72;3.78;;;17.10;99.90;;;;;;4968911;28;20109;-60
2023/09/01 02:59:37;;;;;;;6.53;3.78;;;17.10;99.90;;;;;;4966019;28;20047;-61
2023/09/01 03:02:04;;;;;;;6.45;3.65;;;17.10;99.90;;;;;;4969175;28;20061;-60
2023/09/01 03:04:31;;;;;;;8.05;3.85;;;17.10;99.90;;;;;;4969730;28;20070;-61
2023/09/01 03:06:58;;;;;;;6.45;3.30;;;17.10;99.90;;;;;;4963325;28;20043;-60
2023/09/01 03:09:25;;;;;;;5.30;4.15;;;17.10;99.90;;;;;;4970115;28;20149;-60
2023/09/01 03:11:52;;;;;;;7.78;3.60;;;17.00;99.90;;;;;;4952431;28;20453;-59
2023/09/01 03:14:18;;;;;;;5.07;3.05;;;17.00;99.90;;;;;;4967123;28;20079;-60
2023/09/01 03:16:45;;;;;;;6.45;3.42;;;17.00;99.90;;;;;;4968864;28;20496;-61
2023/09/01 03:19:12;;;;;;;7.32;3.95;;;17.00;99.90;;;;;;4970112;28;20514;-59
2023/09/01 03:21:40;;;;;;;6.43;3.28;;;17.10;99.90;;;;;;4969801;28;20450;-60
2023/09/01 03:24:07;;;;;;;5.00;3.38;;;17.10;99.90;;;;;;4969320;28;20054;-60
2023/09/01 03:26:34;;;;;;;9.68;3.20;;;17.10;99.90;;;;;;4970061;28;20054;-61
2023/09/01 03:29:02;;;;;;;5.72;3.35;;;17.10;99.90;;;;;;4968381;28;20111;-60
2023/09/01 03:31:31;;;;;;;5.15;3.33;;;17.10;99.90;;;;;;4972411;28;20042;-61
2023/09/01 03:33:59;;;;;;;9.13;3.53;;;17.10;99.90;;;;;;4969262;28;20053;-60
2023/09/01 03:36:26;;;;;;;5.05;3.45;;;17.10;99.90;;;;;;4969827;28;20058;-60
2023/09/01 03:38:56;;;;;;;5.97;3.25;;;17.10;99.90;;;;;;4969303;28;20047;-64
2023/09/01 03:41:23;;;;;;;5.13;3.30;;;17.10;99.90;;;;;;4968427;28;20058;-59
2023/09/01 03:43:50;;;;;;;7.55;3.30;;;17.10;99.90;;;;;;4969450;28;20074;-60
2023/09/01 03:46:17;;;;;;;6.88;3.47;;;17.10;99.90;;;;;;4968810;28;20173;-61
2023/09/01 03:48:44;;;;;;;5.30;3.17;;;17.10;99.90;;;;;;4968048;28;20481;-59
2023/09/01 03:51:14;;;;;;;6.65;3.20;;;17.00;99.90;;;;;;4968943;28;20055;-60
2023/09/01 03:53:41;;;;;;;3.40;2.47;;;17.00;99.90;;;;;;4969168;28;20047;-58
2023/09/01 03:56:09;;;;;;;3.83;2.53;;;17.00;99.90;;;;;;4969021;28;20051;-59
2023/09/01 03:58:36;;;;;;;4.80;2.30;;;17.00;99.90;;;;;;4968626;28;20050;-60
2023/09/01 04:01:08;;;;;;;2.60;2.17;;;17.00;99.90;;;;;;4968669;28;20050;-60
2023/09/01 04:03:35;;;;;;;2.53;2.28;;;17.00;99.90;;;;;;4968268;28;20042;-60
2023/09/01 04:06:05;;;;;;;3.83;2.25;;;17.00;99.90;;;;;;4975532;28;20078;-59
2023/09/01 04:08:32;;;;;;;2.45;2.00;;;17.10;99.90;;;;;;4971509;28;20636;-59
2023/09/01 04:10:59;;;;;;;3.80;2.17;;;17.10;99.90;;;;;;4967960;28;20050;-60
2023/09/01 04:13:26;;;;;;;2.90;2.10;;;17.10;99.90;;;;;;4971912;28;20058;-60
2023/09/01 04:15:53;;;;;;;3.28;2.00;;;17.10;99.90;;;;;;4968013;28;20439;-60
2023/09/01 04:18:19;;;;;;;3.03;1.80;;;17.10;99.90;;;;;;4968298;28;20082;-60
2023/09/01 04:20:50;;;;;;;3.00;2.17;;;17.10;99.90;;;;;;4971553;28;20046;-60
2023/09/01 04:23:18;;;;;;;4.40;2.38;;;17.10;99.90;;;;;;4958510;28;20502;-60
2023/09/01 04:25:45;;;;;;;3.60;2.10;;;17.10;99.90;;;;;;4968657;28;20042;-60
2023/09/01 04:28:13;;;;;;;4.10;2.00;;;17.00;99.90;;;;;;4969035;28;20054;-60
2023/09/01 04:30:40;;;;;;;2.50;1.75;;;17.00;99.90;;;;;;4965438;28;20039;-60
2023/09/01 04:33:07;;;;;;;2.88;1.70;;;17.00;99.90;;;;;;4968452;28;20046;-60
2023/09/01 04:35:34;;;;;;;1.85;1.67;;;17.00;99.90;;;;;;4968271;28;20058;-59
2023/09/01 04:38:00;;;;;;;2.35;1.73;;;17.00;99.90;;;;;;4968355;28;20364;-59
2023/09/01 04:40:28;;;;;;;4.15;2.28;;;17.00;99.90;;;;;;4967643;28;20050;-59
2023/09/01 04:42:55;;;;;;;1.85;1.63;;;17.00;99.90;;;;;;4966732;28;20047;-60
2023/09/01 04:45:23;;;;;;;1.52;1.38;;;17.00;99.90;;;;;;4967924;28;20047;-60
2023/09/01 04:47:51;;;;;;;2.20;1.90;;;17.00;99.90;;;;;;4974265;28;20497;-60
2023/09/01 04:50:18;;;;;;;2.15;1.67;;;17.00;99.90;;;;;;4967359;28;20085;-60
2023/09/01 04:52:45;;;;;;;3.47;1.67;;;17.00;99.90;;;;;;4968338;28;20050;-60
2023/09/01 04:55:12;;;;;;;3.50;1.85;;;17.00;99.90;;;;;;4969233;28;20113;-60
2023/09/01 04:57:38;;;;;;;3.78;1.75;;;17.00;99.90;;;;;;4968361;28;20101;-60
2023/09/01 05:00:15;;;;;;;3.53;1.70;;;17.00;99.90;;;;;;4966622;28;20113;-59
2023/09/01 05:02:46;;;;;;;5.35;2.00;;;17.00;99.90;;;;;;4963182;28;20078;-60
2023/09/01 05:05:13;;;;;;;2.10;1.60;;;17.10;99.90;;;;;;4967667;28;20053;-60
2023/09/01 05:07:40;;;;;;;3.35;1.77;;;17.10;99.90;;;;;;4971343;28;20051;-60
2023/09/01 05:10:08;;;;;;;2.55;1.63;;;17.10;99.90;;;;;;4967490;28;20187;-60
2023/09/01 05:12:35;;;;;;;3.38;1.48;;;17.10;99.90;;;;;;4964987;28;20094;-60
2023/09/01 05:15:03;;;;;;;3.28;1.80;;;17.10;99.90;;;;;;4965955;28;20125;-60
2023/09/01 05:17:30;;;;;;;4.55;1.60;;;17.10;99.90;;;;;;4958723;28;20043;-59
2023/09/01 05:19:57;;;;;;;2.20;1.70;;;17.10;99.90;;;;;;4970355;28;20072;-59
2023/09/01 05:22:24;;;;;;;19.45;2.67;;;17.10;99.90;;;;;;4972092;28;20054;-60
2023/09/01 05:24:53;;;;;;;2.25;1.25;;;17.10;99.90;;;;;;4977278;28;20042;-60
2023/09/01 05:27:20;;;;;;;2.47;1.50;;;17.20;99.90;;;;;;4971713;28;20054;-59
2023/09/01 05:29:47;;;;;;;3.40;1.83;;;17.20;99.90;;;;;;4972339;28;20842;-59
2023/09/01 05:32:14;;;;;;;1.88;1.42;;;17.20;99.90;;;;;;4971408;28;20058;-60
2023/09/01 05:34:42;;;;;;;3.00;1.45;;;17.20;99.90;;;;;;4971699;28;20043;-60
2023/09/01 05:37:11;;;;;;;2.13;1.73;;;17.20;99.90;;;;;;4971487;28;20074;-60
2023/09/01 05:39:41;;;;;;;2.92;1.73;;;17.20;99.90;;;;;;4973033;28;20053;-60
2023/09/01 05:42:08;;;;;;;2.25;1.40;;;17.20;99.90;;;;;;4970554;28;20058;-60
2023/09/01 05:44:36;;;;;;;1.70;1.50;;;17.20;99.90;;;;;;4971091;28;20486;-59
2023/09/01 05:47:06;;;;;;;4.55;1.35;;;17.20;99.90;;;;;;4970862;28;20066;-59
2023/09/01 05:49:33;;;;;;;1.48;1.17;;;17.20;99.90;;;;;;4968612;28;20042;-60
2023/09/01 05:52:00;;;;;;;2.03;1.40;;;17.20;99.90;;;;;;4974430;28;20125;-60
2023/09/01 05:54:27;;;;;;;1.85;1.25;;;17.20;99.90;;;;;;4976314;28;20494;-60
2023/09/01 05:56:54;;;;;;;2.20;1.55;;;17.30;99.90;;;;;;4977660;28;20047;-60
2023/09/01 05:59:21;;;;;;;1.67;1.50;;;17.20;99.90;;;;;;4976214;28;20190;-60
2023/09/01 06:01:48;;;;;;;2.28;1.45;;;17.20;99.90;;;;;;4970776;28;20572;-60
2023/09/01 06:04:15;;;;;;;3.08;1.65;;;17.30;99.90;;;;;;4971209;28;20050;-62
2023/09/01 06:06:42;;;;;;;2.00;1.60;;;17.30;99.90;;;;;;4960437;28;20053;-60
2023/09/01 06:09:09;;;;;;;1.95;1.38;;;17.30;99.90;;;;;;4970888;28;20470;-60
2023/09/01 06:11:37;;;;;;;2.85;1.75;;;17.30;99.90;;;;;;4969902;28;20147;-60
2023/09/01 06:14:04;;;;;;;2.33;1.73;;;17.30;99.90;;;;;;4971680;28;20498;-60
2023/09/01 06:16:30;;;;;;;1.67;1.30;;;17.30;99.90;;;;;;4970539;28;20054;-60
2023/09/01 06:18:59;;;;;;;1.83;1.30;;;17.40;99.90;;;;;;4970077;28;20049;-60
2023/09/01 06:21:26;;;;;;;1.83;1.40;;;17.40;99.90;;;;;;4970042;28;20391;-60
2023/09/01 06:23:52;;;;;;;1.92;1.73;;;17.40;99.90;;;;;;4970571;28;20066;-61
2023/09/01 06:26:19;;;;;;;3.15;1.77;;;17.40;99.90;;;;;;4967495;28;20047;-59
2023/09/01 06:28:46;;;;;;;1.85;1.52;;;17.40;99.90;;;;;;4969577;28;20580;-59
2023/09/01 06:31:14;;;;;;;3.17;1.77;;;17.40;99.90;;;;;;4968083;28;20046;-60
2023/09/01 06:33:42;;;;;;;2.30;1.40;;;17.40;99.90;;;;;;4968987;28;20133;-59
2023/09/01 06:36:10;;;;;;;2.15;1.70;;;17.50;99.90;;;;;;4952604;28;20047;-59
2023/09/01 06:38:37;;;;;;;4.85;1.75;;;17.50;99.90;;;;;;4952682;28;20054;-59
2023/09/01 06:41:04;;;;;;;4.60;2.03;;;17.50;99.90;;;;;;4969703;28;20065;-60
2023/09/01 06:43:31;;;;;;;2.83;1.65;;;17.60;99.90;;;;;;4969492;28;20498;-63
2023/09/01 06:45:58;;;;;;;2.25;1.80;;;17.60;99.90;;;;;;4970792;28;20498;-61
2023/09/01 06:48:25;;;;;;;5.30;2.58;;;17.60;99.90;;;;;;4966780;28;20054;-61
2023/09/01 06:50:52;;;;;;;4.28;2.28;;;17.70;99.90;;;;;;4970076;28;20215;-58
2023/09/01 06:53:18;;;;;;;3.45;2.05;;;17.80;99.90;;;;;;4969737;28;20059;-57
2023/09/01 06:55:46;;;;;;;7.00;2.35;;;17.80;99.90;;;;;;4970278;28;20051;-58
2023/09/01 06:58:13;;;;;;;2.08;1.75;;;17.70;99.90;;;;;;4970369;28;20098;-57
2023/09/01 07:00:41;;;;;;;6.60;1.60;;;17.80;99.90;;;;;;4966896;28;20122;-58
2023/09/01 07:03:08;;;;;;;5.30;2.45;;;17.80;99.90;;;;;;4968063;28;20054;-58
2023/09/01 07:05:35;;;;;;;2.53;1.55;;;17.80;99.90;;;;;;4969855;28;20201;-56
2023/09/01 07:08:02;;;;;;;3.97;2.25;;;17.90;99.90;;;;;;4969795;28;20082;-57
2023/09/01 07:10:29;;;;;;;4.22;2.20;;;18.00;99.90;;;;;;4969804;28;20094;-56
2023/09/01 07:12:55;;;;;;;5.85;1.65;;;18.10;99.90;;;;;;4969986;28;20097;-56
2023/09/01 07:15:22;;;;;;;1.98;1.35;;;18.20;99.90;;;;;;4969146;28;20047;-55
2023/09/01 07:17:49;;;;;;;4.03;1.63;;;18.30;99.90;;;;;;4969012;28;20121;-58
2023/09/01 07:20:16;;;;;;;2.55;1.52;;;18.40;99.90;;;;;;4967092;28;20049;-58
2023/09/01 07:22:43;;;;;;;2.75;1.40;;;18.40;99.90;;;;;;4951495;28;20055;-59
2023/09/01 07:25:13;;;;;;;1.70;1.25;;;18.40;99.90;;;;;;4968383;28;20070;-58
2023/09/01 07:27:39;;;;;;;2.30;1.40;;;18.50;99.90;;;;;;4968123;28;20047;-59
2023/09/01 07:30:07;;;;;;;2.30;1.40;;;18.50;99.90;;;;;;4968270;28;20141;-55
2023/09/01 07:32:34;;;;;;;1.13;1.00;;;18.50;99.90;;;;;;4968772;28;20541;-58
2023/09/01 07:35:00;;;;;;;1.77;1.20;;;18.50;99.90;;;;;;4967303;28;20055;-58
2023/09/01 07:37:27;;;;;;;3.50;1.15;;;18.50;99.90;;;;;;4969578;28;20101;-59
2023/09/01 07:39:54;;;;;;;2.28;1.38;;;18.50;99.90;;;;;;4966906;28;20082;-59
2023/09/01 07:42:22;;;;;;;1.90;1.40;;;18.50;99.90;;;;;;4968469;28;20422;-57
2023/09/01 07:44:49;;;;;;;1.98;1.20;;;18.50;99.90;;;;;;4969344;28;20123;-57
2023/09/01 07:47:16;;;;;;;1.65;1.23;;;18.50;99.90;;;;;;4968908;28;20127;-56
2023/09/01 07:49:43;;;;;;;3.10;1.65;;;18.50;99.90;;;;;;4969927;28;20047;-61
2023/09/01 07:52:09;;;;;;;2.63;1.27;;;18.50;99.90;;;;;;4967417;28;20093;-55
2023/09/01 07:54:36;;;;;;;2.00;1.30;;;18.60;99.90;;;;;;4624325;28;10000676;-57
2023/09/01 07:57:03;;;;;;;4.78;1.40;;;18.70;99.90;;;;;;4964008;28;20057;-59
2023/09/01 07:59:31;;;;;;;3.30;1.50;;;18.70;99.90;;;;;;4963401;28;20239;-62
2023/09/01 08:01:57;;;;;;;3.33;1.58;;;18.80;99.90;;;;;;4964772;28;20089;-60
2023/09/01 08:04:24;;;;;;;1.77;1.13;;;18.80;99.90;;;;;;4949970;28;20086;-58
2023/09/01 08:06:51;;;;;;;2.08;1.20;;;18.90;99.90;;;;;;4948259;28;20054;-58
2023/09/01 08:09:19;;;;;;;3.92;1.52;;;18.90;99.90;;;;;;4964328;28;20051;-59
2023/09/01 08:11:45;;;;;;;3.83;1.10;;;18.90;99.90;;;;;;4968549;28;20498;-57
2023/09/01 08:14:12;;;;;;;2.15;1.23;;;18.90;99.90;;;;;;4965291;28;20050;-59
2023/09/01 08:16:39;;;;;;;1.85;1.30;;;18.90;99.90;;;;;;4965712;28;20128;-58
2023/09/01 08:19:06;;;;;;;2.13;1.30;;;18.80;99.90;;;;;;4963619;28;20061;-58
2023/09/01 08:21:33;;;;;;;4.57;1.17;;;18.90;99.90;;;;;;4947171;28;20050;-58
2023/09/01 08:24:00;;;;;;;2.63;1.35;;;18.90;99.90;;;;;;4965791;28;20058;-58
2023/09/01 08:26:27;;;;;;;2.72;1.10;;;18.90;99.90;;;;;;4964824;28;20050;-58
2023/09/01 08:28:54;;;;;;;2.53;1.50;;;19.00;99.90;;;;;;4966442;28;20046;-57
2023/09/01 08:31:21;;;;;;;2.45;1.35;;;18.90;99.90;;;;;;4964356;28;20561;-58
2023/09/01 08:33:48;;;;;;;1.80;1.23;;;18.90;99.90;;;;;;4966252;28;20048;-58
2023/09/01 08:36:15;;;;;;;2.67;1.40;;;19.00;99.90;;;;;;4966594;28;20078;-58
2023/09/01 08:38:42;;;;;;;3.08;1.33;;;18.90;99.90;;;;;;4962771;28;20047;-58
2023/09/01 08:41:09;;;;;;;3.70;2.08;;;19.00;99.90;;;;;;4966213;28;20066;-56
2023/09/01 08:43:40;;;;;;;2.53;1.50;;;19.10;99.90;;;;;;4965739;28;20509;-59
2023/09/01 08:46:07;;;;;;;4.28;1.73;;;19.10;99.90;;;;;;4965017;28;20051;-58
2023/09/01 08:48:41;;;;;;;4.60;1.85;;;19.10;99.90;;;;;;4933961;28;20141;-58
2023/09/01 08:51:08;;;;;;;2.60;1.70;;;19.10;99.90;;;;;;4963167;28;20058;-57
2023/09/01 08:53:38;;;;;;;6.90;2.47;;;19.10;99.90;;;;;;4962348;28;20372;-58
2023/09/01 08:56:05;;;;;;;4.55;2.10;;;19.10;99.90;;;;;;4967455;28;20050;-61
2023/09/01 08:58:33;;;;;;;3.85;2.15;;;19.20;99.90;;;;;;4965305;28;20061;-57
2023/09/01 09:00:59;;;;;;;3.67;1.88;;;19.40;99.90;;;;;;4950768;28;20465;-58
2023/09/01 09:03:27;;;;;;;6.15;2.17;;;19.50;99.90;;;;;;4951578;28;20047;-61
2023/09/01 09:05:54;;;;;;;2.83;1.70;;;19.50;99.90;;;;;;4967463;28;20570;-58
2023/09/01 09:08:22;;;;;;;3.78;2.30;;;19.60;99.90;;;;;;4970418;28;20053;-58
2023/09/01 09:10:49;;;;;;;10.93;2.60;;;19.70;99.90;;;;;;4969532;28;20626;-59
2023/09/01 09:13:22;;;;;;;6.57;2.97;;;19.80;99.90;;;;;;4971632;28;20047;-60
2023/09/01 09:16:14;;;;;;;6.32;3.20;;;19.90;99.90;;;;;;4970366;28;20494;-61
2023/09/01 09:18:42;;;;;;;7.00;3.45;;;19.90;99.90;;;;;;4968930;28;20058;-58
2023/09/01 09:21:26;;;;;;;9.50;3.75;;;20.00;99.90;;;;;;4953386;28;20047;-59
2023/09/01 09:23:54;;;;;;;;;;;20.20;99.90;;;;;;4975946;28;20042;-57
2023/09/01 09:26:37;;;;;;;4.15;3.30;;;20.20;99.90;;;;;;4962280;28;19926;-59
2023/09/01 09:29:15;;;;;;;3.53;1.80;;;20.40;99.90;;;;;;4971830;28;20054;-59
2023/09/01 09:31:44;;;;;;;2.72;2.30;;;20.60;99.90;;;;;;4968405;28;20137;-59
2023/09/01 09:34:18;;;;;;;1.92;1.40;;;20.70;99.90;;;;;;4969931;28;20494;-59
2023/09/01 09:36:46;;;;;;;1.90;1.40;;;20.70;99.90;;;;;;4969784;28;20082;-58
2023/09/01 09:39:23;;;;;;;3.60;1.75;;;20.70;99.90;;;;;;4968693;28;20109;-58
2023/09/01 09:41:50;;;;;;;3.15;1.42;;;20.60;99.90;;;;;;4968883;28;20491;-59
2023/09/01 09:44:33;;;;;;;4.78;1.50;;;20.60;99.90;;;;;;4969357;28;20046;-59
2023/09/01 09:47:01;;;;;;;1.92;1.35;;;20.60;99.90;;;;;;4969738;28;20102;-63
2023/09/01 09:49:30;;;;;;;1.50;1.30;;;20.60;99.90;;;;;;4971911;28;20049;-58
2023/09/01 09:51:59;;;;;;;4.65;1.40;;;20.70;99.90;;;;;;4964401;28;20042;-58
2023/09/01 09:54:26;;;;;;;5.50;1.48;;;20.80;99.90;;;;;;4942799;28;20039;-59
2023/09/01 09:56:53;;;;;;;2.30;1.48;;;20.80;99.90;;;;;;4968917;28;20287;-57
2023/09/01 09:59:43;;;;;;;1.92;1.13;;;20.90;99.90;;;;;;4954026;28;20061;-59
2023/09/01 10:02:27;;;;;;;6.10;1.15;;;21.00;99.90;;;;;;4974678;28;20047;-59
2023/09/01 10:04:55;;;;;;;6.47;1.35;;;21.20;99.90;;;;;;4945784;28;20199;-58
2023/09/01 10:07:21;;;;;;;2.28;1.40;;;21.20;99.90;;;;;;4947668;28;20453;-59
2023/09/01 10:09:48;;;;;;;1.98;1.17;;;21.30;99.90;;;;;;4980748;28;20050;-60
2023/09/01 10:12:15;;;;;;;4.55;1.40;;;21.30;99.90;;;;;;4969763;28;20202;-58
2023/09/01 10:14:42;;;;;;;1.83;1.35;;;21.40;99.90;;;;;;4970577;28;20053;-59
2023/09/01 10:17:10;;;;;;;1.73;0.90;;;21.30;99.90;;;;;;4937942;28;20057;-59
2023/09/01 10:19:37;;;;;;;1.30;1.00;;;21.30;99.90;;;;;;4947435;28;20054;-59
2023/09/01 10:22:04;;;;;;;3.33;2.40;;;21.00;99.90;;;;;;4969642;28;20043;-56
2023/09/01 10:24:30;;;;;;;8.13;2.80;;;20.80;99.90;;;;;;4954479;28;20157;-58
2023/09/01 10:27:08;;;;;;;8.90;2.28;;;20.70;99.90;;;;;;4971290;28;20049;-59
2023/09/01 10:29:35;;;;;;;4.85;2.67;;;20.70;99.90;;;;;;4971696;28;20054;-59
2023/09/01 10:32:17;;;;;;;3.40;2.40;;;20.60;99.90;;;;;;4978174;28;20510;-59
2023/09/01 10:34:54;;;;;;;5.10;2.83;;;20.50;99.90;;;;;;4970281;28;20497;-61
2023/09/01 10:37:27;;;;;;;6.47;2.78;;;20.50;99.90;;;;;;4970356;28;20061;-59
2023/09/01 10:39:54;;;;;;;7.30;2.67;;;20.60;99.90;;;;;;4969579;28;20073;-59
2023/09/01 10:42:41;;;;;;;12.77;2.85;;;20.70;99.90;;;;;;4970347;28;20051;-59
2023/09/01 10:45:08;;;;;;;3.50;2.38;;;20.70;99.90;;;;;;4976329;28;20113;-59
2023/09/01 10:47:38;;;;;;;4.22;2.65;;;20.70;99.90;;;;;;4969253;28;20047;-59
2023/09/01 10:50:06;;;;;;;3.70;2.33;;;20.80;99.90;;;;;;4969853;28;20054;-59
2023/09/01 10:52:34;;;;;;;4.90;2.88;;;20.90;99.90;;;;;;4970557;28;20049;-59
2023/09/01 10:55:05;;;;;;;5.93;2.70;;;21.00;99.90;;;;;;4970409;28;20138;-59
2023/09/01 10:57:41;;;;;;;8.07;2.80;;;21.10;99.90;;;;;;4973611;28;20490;-59
2023/09/01 11:00:24;;;;;;;4.60;2.65;;;21.10;99.90;;;;;;4967266;28;20058;-59
2023/09/01 11:02:52;;;;;;;3.85;2.33;;;21.00;99.90;;;;;;4963735;28;20321;-58
2023/09/01 11:05:39;;;;;;;2.42;1.70;;;21.00;99.90;;;;;;4969171;28;20047;-59
2023/09/01 11:08:14;;;;;;;2.33;1.58;;;21.00;99.90;;;;;;4616426;28;10000153;-58
2023/09/01 11:10:42;;;;;;;5.32;1.90;;;20.90;99.90;;;;;;4968570;28;20101;-59
2023/09/01 11:13:17;;;;;;;3.03;2.15;;;21.00;99.90;;;;;;4980095;28;20096;-59
2023/09/01 11:15:47;;;;;;;4.22;1.92;;;21.20;99.90;;;;;;4976164;28;20054;-60
2023/09/01 11:18:21;;;;;;;2.53;1.58;;;21.50;99.90;;;;;;4969582;28;20050;-59
2023/09/01 11:20:53;;;;;;;4.22;1.40;;;21.50;99.90;;;;;;4970069;28;20043;-58
2023/09/01 11:23:23;;;;;;;2.88;1.27;;;21.50;99.90;;;;;;4959035;28;20430;-58
2023/09/01 11:25:57;;;;;;;1.90;1.25;;;21.50;99.90;;;;;;4970147;28;20039;-59
2023/09/01 11:28:28;;;;;;;1.42;1.20;;;21.60;99.90;;;;;;4953602;28;20055;-60
2023/09/01 11:31:02;;;;;;;1.50;0.80;;;21.50;99.90;;;;;;4973457;28;20042;-60
2023/09/01 11:33:33;;;;;;;5.22;1.30;;;21.40;99.90;;;;;;4973757;28;20046;-59
2023/09/01 11:36:12;;;;;;;1.70;1.10;;;21.20;99.90;;;;;;4969410;28;20090;-59
2023/09/01 11:38:43;;;;;;;2.47;1.73;;;21.30;99.90;;;;;;4968404;28;20065;-58
2023/09/01 11:41:17;;;;;;;3.92;1.00;;;21.30;99.90;;;;;;4966694;28;20043;-59
2023/09/01 11:43:44;;;;;;;3.58;1.15;;;21.40;99.90;;;;;;4964406;28;20065;-59
2023/09/01 11:46:11;;;;;;;2.08;1.15;;;21.50;99.90;;;;;;4957774;28;20046;-60
2023/09/01 11:48:38;;;;;;;2.28;1.13;;;21.60;99.90;;;;;;4969570;28;20078;-59
2023/09/01 11:51:05;;;;;;;1.83;1.20;;;21.70;99.90;;;;;;4969246;28;20497;-59
2023/09/01 11:53:32;;;;;;;2.92;1.00;;;21.70;99.90;;;;;;4969683;28;20094;-59
2023/09/01 11:56:01;;;;;;;2.03;1.00;;;21.70;99.90;;;;;;4965629;28;20051;-59
2023/09/01 11:58:34;;;;;;;2.35;1.23;;;21.80;99.90;;;;;;4952662;28;20054;-60
2023/09/01 12:01:14;;;;;;;3.22;1.50;;;22.00;99.90;;;;;;4967991;28;20482;-60
2023/09/01 12:03:53;;;;;;;2.28;1.67;;;22.10;99.90;;;;;;4968772;28;20112;-59
2023/09/01 12:06:22;;;;;;;4.63;2.03;;;22.10;99.90;;;;;;4965700;28;20126;-59
2023/09/01 12:08:50;;;;;;;5.30;2.80;;;22.20;99.90;;;;;;4969554;28;20540;-58
2023/09/01 12:11:17;;;;;;;7.10;2.13;;;22.30;99.90;;;;;;4969366;28;20051;-59
2023/09/01 12:13:48;;;;;;;2.75;1.77;;;22.30;99.90;;;;;;4973996;28;20065;-59
2023/09/01 12:16:22;;;;;;;5.13;1.50;;;22.30;99.90;;;;;;4970490;28;20047;-58
2023/09/01 12:18:49;;;;;;;3.15;1.25;;;22.40;99.90;;;;;;4972199;28;20332;-59
2023/09/01 12:21:16;;;;;;;8.02;1.90;;;22.40;99.90;;;;;;4969129;28;20046;-59
2023/09/01 12:23:44;;;;;;;2.80;1.65;;;22.50;99.90;;;;;;4969071;28;20093;-58
2023/09/01 12:26:12;;;;;;;2.25;1.48;;;22.60;99.90;;;;;;4969277;28;20050;-60
2023/09/01 12:28:40;;;;;;;4.43;2.15;;;22.80;99.90;;;;;;4970617;28;20062;-60
2023/09/01 12:31:07;;;;;;;7.55;1.80;;;23.00;99.90;;;;;;4968755;28;20055;-59
2023/09/01 12:33:35;;;;;;;4.03;1.65;;;23.10;99.90;;;;;;4966959;28;20256;-57
2023/09/01 12:36:02;;;;;;;5.93;1.95;;;23.20;99.90;;;;;;4968963;28;20046;-60
2023/09/01 12:38:29;;;;;;;4.47;2.17;;;23.20;99.90;;;;;;4968400;28;20055;-58
2023/09/01 12:40:56;;;;;;;2.05;1.27;;;23.30;99.90;;;;;;4968946;28;20047;-60
2023/09/01 12:43:23;;;;;;;2.67;1.55;;;23.20;99.90;;;;;;4969140;28;20058;-61
2023/09/01 12:45:50;;;;;;;1.98;1.17;;;23.20;99.90;;;;;;4968588;28;20047;-59
2023/09/01 12:48:17;;;;;;;4.78;1.35;;;23.20;99.90;;;;;;4969050;28;20055;-60
2023/09/01 12:50:47;;;;;;;7.20;2.20;;;23.20;99.90;;;;;;4969625;28;20407;-60
2023/09/01 12:53:15;;;;;;;2.35;1.50;;;23.20;99.90;;;;;;4968793;28;20061;-59